Kezdőlap
METAR-TAF:

METAR-TAF

Repülőterek :

Anapa, Oroszország

földrajzi szélesség: 44-54N, földrajzi hosszúság: 037-19E, magasság: 53 m

Jelenlegi meteorológiai megfigyelések

A jelentés 27 perccel ezelõtt készült, 13:30 UTC
Kelet-északkeleti szél 14 kt
Hőmérséklet 34°C
Páratartalom 26%
Légköri nyomás 1009 hPa
Látótávolság 10 km, vagy több
felhőtlen 1500 m magasságban, és nincs gomolyfelhõ

METAR: URKA 161330Z 06007MPS CAVOK 34/12 Q1009 R04/010070 NOSIG RMK QFE753/1004

Idő: 16:57 (13:57 UTC)

Előrejelzés

A jelentés 3 órával és 4 perccel ezelõtt készült, 10:53 UTC
Az előrejelzés 16-én 12 óra UTC és 17-én 12 óra UTC között érvényes
Kelet-északkeleti szél 14 kt széllökések: 25 kt
Látótávolság 10 km, vagy több
Szórványos felhőzet 3000 lábon
16-én 12 óra UTC és 16-én 16 óra UTC között ideiglenes
Keleti szél 23 kt széllökések: 33 kt

TAF: URKA 161053Z 1612/1712 07007G13MPS 9999 SCT030 TEMPO 1612/1616 10012G17MPS

Meteorológiai megfigyelések és előrejelzések több, mint 4000 repülőtéren (METAR és TAF jelentéseket).

A térképen piros és sárga pontok jelzik az elérhető meteorológiai állomásokat.

Mozgassa az egeret a pont fölött, hogy megjelenjen az állomás neve.

Azután kattintson az időjárási megfigyelések és előrejelzések megtekintéséhez.

A térkép megváltoztatása: kattintson a fekete keresztel jelölt zöld gombra ráközelítéshez, a vonallal jelölt zöld gombra távolításhoz, vagy a zöld nyilakra a szomszédos térképek eléréséhez.


METAR-TAF: